Time;durP1;ratioP1;P1;durP2;ratioP2;P2;SDS_P1;SDS_P2;PMS_P1;PMS_P2;Temp;Humidity;BMP_temperature;BMP_pressure;BME280_temperature;BME280_humidity;BME280_pressure;Samples;Min_cycle;Max_cycle;Signal;HPM_P1;HPM_P2
2021/10/18 07:18:00;;;;;;;44.20;19.15;;;;;;;6.79;92.60;99605.98;2216990;80;21062;-67
2021/10/18 07:21:01;;;;;;;40.38;18.87;;;;;;;6.79;93.25;99608.59;2219744;80;21016;-67
2021/10/18 07:24:04;;;;;;;38.48;19.07;;;;;;;6.82;93.15;99608.02;2216642;79;21068;-67
2021/10/18 07:27:04;;;;;;;40.48;19.07;;;;;;;6.88;92.94;99620.01;2185951;79;21005;-68
2021/10/18 07:30:04;;;;;;;40.30;19.05;;;;;;;6.92;93.30;99625.09;2221216;80;20956;-67
2021/10/18 07:33:06;;;;;;;40.83;18.75;;;;;;;6.93;92.82;99620.26;2208695;80;21483;-67
2021/10/18 07:36:09;;;;;;;41.33;18.35;;;;;;;6.92;93.44;99621.19;2211495;80;21003;-67
2021/10/18 07:39:09;;;;;;;40.52;18.98;;;;;;;7.01;93.54;99626.54;2187315;80;21004;-67
2021/10/18 07:42:14;;;;;;;40.90;18.00;;;;;;;7.02;93.87;99623.00;2212575;80;21095;-67
2021/10/18 07:45:11;;;;;;;45.20;19.00;;;;;;;7.12;93.27;99618.34;2194313;80;21019;-67
2021/10/18 07:48:12;;;;;;;39.73;18.77;;;;;;;7.21;93.88;99636.30;2216470;80;21028;-67
2021/10/18 07:51:12;;;;;;;42.03;18.62;;;;;;;7.22;93.88;99630.63;2216025;80;21095;-67
2021/10/18 07:54:14;;;;;;;40.37;17.80;;;;;;;7.27;93.75;99636.08;2210679;80;21031;-67
2021/10/18 07:57:15;;;;;;;41.05;17.85;;;;;;;7.33;93.90;99642.84;2209153;80;21118;-67
2021/10/18 08:00:15;;;;;;;40.58;18.35;;;;;;;7.34;94.50;99637.16;2208715;80;21024;-67
2021/10/18 08:03:16;;;;;;;40.67;18.62;;;;;;;7.41;93.82;99630.39;2210442;80;21075;-67
2021/10/18 08:06:16;;;;;;;39.58;17.07;;;;;;;7.47;93.99;99628.02;2209443;80;21016;-67
2021/10/18 08:09:17;;;;;;;39.83;18.02;;;;;;;7.54;93.78;99632.55;2209665;80;21000;-68
2021/10/18 08:12:17;;;;;;;38.78;17.05;;;;;;;7.53;93.88;99635.63;2209053;80;21072;-67
2021/10/18 08:15:17;;;;;;;39.35;16.42;;;;;;;7.56;94.13;99635.52;2210154;80;21524;-67
2021/10/18 08:18:18;;;;;;;39.33;16.75;;;;;;;7.59;94.12;99643.70;2208926;80;20948;-67
2021/10/18 08:21:19;;;;;;;38.25;16.07;;;;;;;7.55;94.17;99645.55;2208170;80;21028;-67
2021/10/18 08:24:19;;;;;;;38.92;15.28;;;;;;;7.56;94.80;99652.48;2206775;80;20988;-67
2021/10/18 08:27:20;;;;;;;34.58;15.03;;;;;;;7.58;94.98;99654.57;2209873;80;21066;-67
2021/10/18 08:30:20;;;;;;;38.40;15.25;;;;;;;7.63;94.89;99660.96;2209254;80;21020;-67
2021/10/18 08:33:21;;;;;;;34.05;13.88;;;;;;;7.69;94.64;99652.90;2209326;80;21550;-67
2021/10/18 08:36:21;;;;;;;36.10;14.53;;;;;;;7.79;94.18;99650.81;2210287;80;20949;-67
2021/10/18 08:45:26;;;;;;;32.60;14.15;;;;;;;7.92;94.35;99648.14;2185362;80;20997;-67
2021/10/18 08:48:27;;;;;;;35.08;15.18;;;;;;;8.06;93.83;99649.38;2208652;80;20957;-67
2021/10/18 08:51:27;;;;;;;33.63;14.33;;;;;;;8.25;93.31;99649.09;2208848;80;21037;-67
2021/10/18 08:54:28;;;;;;;34.53;14.13;;;;;;;8.39;92.55;99648.56;2209357;80;21000;-67
2021/10/18 08:57:28;;;;;;;34.27;14.43;;;;;;;8.44;92.25;99645.33;2209458;80;21142;-67
2021/10/18 09:00:29;;;;;;;35.92;15.10;;;;;;;8.46;92.78;99659.21;2208434;80;20964;-67
2021/10/18 09:03:31;;;;;;;35.48;16.15;;;;;;;8.41;92.01;99663.72;2207053;80;21009;-67
2021/10/18 09:06:31;;;;;;;35.20;14.65;;;;;;;8.44;92.10;99652.30;2207320;80;21495;-67
2021/10/18 09:09:32;;;;;;;35.33;15.18;;;;;;;8.52;92.09;99656.81;2208225;80;21083;-67
2021/10/18 09:12:35;;;;;;;35.40;14.38;;;;;;;8.63;92.50;99663.78;2209386;80;20969;-68
2021/10/18 09:15:34;;;;;;;33.78;13.72;;;;;;;8.62;91.75;99671.66;2187375;80;21625;-67
2021/10/18 09:18:35;;;;;;;34.48;13.70;;;;;;;8.57;92.32;99671.84;2208045;80;20957;-67
2021/10/18 09:21:35;;;;;;;33.63;13.90;;;;;;;8.57;92.44;99675.77;2207612;80;21059;-67
2021/10/18 09:24:36;;;;;;;33.53;14.05;;;;;;;8.53;92.56;99685.11;2206514;80;20984;-67
2021/10/18 09:27:37;;;;;;;34.25;13.75;;;;;;;8.55;92.92;99677.61;2209765;80;20997;-67
2021/10/18 09:30:37;;;;;;;32.38;14.03;;;;;;;8.60;92.55;99682.66;2207585;80;20976;-67
2021/10/18 09:33:40;;;;;;;33.10;14.58;;;;;;;8.65;91.87;99687.26;2210380;80;21068;-67
2021/10/18 09:36:40;;;;;;;38.17;15.28;;;;;;;8.63;91.71;99684.70;2186263;80;21005;-67
2021/10/18 09:39:42;;;;;;;32.85;13.35;;;;;;;8.62;91.56;99692.14;2207555;80;21044;-67
2021/10/18 09:42:42;;;;;;;30.37;13.00;;;;;;;8.63;91.84;99702.14;2209861;80;21026;-67
2021/10/18 09:45:43;;;;;;;33.83;14.40;;;;;;;8.56;91.96;99700.67;2207054;80;22420;-67
2021/10/18 10:52:32;;;;;;;32.35;13.43;;;;;;;8.64;93.33;99698.63;2183270;80;21448;-67
2021/10/18 10:55:33;;;;;;;27.32;12.20;;;;;;;8.64;93.24;99698.63;2210405;80;21008;-67
2021/10/18 10:58:34;;;;;;;29.00;12.55;;;;;;;8.66;93.75;99705.50;2210278;80;21005;-67
2021/10/18 11:01:34;;;;;;;28.98;12.45;;;;;;;8.68;93.52;99709.36;2210776;80;21012;-67
2021/10/18 11:04:35;;;;;;;28.50;11.68;;;;;;;8.71;93.60;99709.70;2209307;80;20969;-67
2021/10/18 11:07:36;;;;;;;29.18;12.03;;;;;;;8.72;93.46;99699.62;2210987;80;21031;-67
2021/10/18 11:10:37;;;;;;;29.87;11.95;;;;;;;8.72;93.54;99701.80;2208027;80;21004;-67
2021/10/18 11:13:37;;;;;;;27.27;11.60;;;;;;;8.72;93.67;99695.69;2209097;80;20996;-67
2021/10/18 11:16:38;;;;;;;28.07;11.30;;;;;;;8.78;93.61;99695.47;2208137;80;21049;-67
2021/10/18 11:19:38;;;;;;;28.32;11.65;;;;;;;8.77;93.26;99691.98;2209828;80;20988;-67
2021/10/18 11:22:39;;;;;;;31.40;12.55;;;;;;;8.76;93.56;99694.66;2207493;80;21009;-67
2021/10/18 11:25:40;;;;;;;30.32;12.65;;;;;;;8.82;93.70;99681.33;2210096;80;21084;-67
2021/10/18 11:28:41;;;;;;;30.35;13.00;;;;;;;8.95;93.43;99677.33;2210555;80;21539;-67
2021/10/18 11:31:41;;;;;;;34.85;15.03;;;;;;;8.94;93.01;99669.08;2209405;80;20972;-67
2021/10/18 11:34:42;;;;;;;37.38;16.10;;;;;;;8.97;92.67;99670.72;2208731;80;21037;-67
2021/10/18 11:37:42;;;;;;;36.65;16.23;;;;;;;8.92;92.67;99671.35;2207679;80;20933;-67
2021/10/18 11:40:44;;;;;;;36.68;16.07;;;;;;;8.92;92.91;99676.15;2209646;80;20984;-67
2021/10/18 11:43:44;;;;;;;35.92;15.88;;;;;;;8.90;92.74;99675.34;2210664;80;21011;-67
2021/10/18 11:46:45;;;;;;;34.15;15.15;;;;;;;8.88;92.81;99685.47;2208901;81;20969;-67
2021/10/18 11:49:45;;;;;;;32.65;14.93;;;;;;;8.85;93.13;99687.77;2212936;80;20980;-67
2021/10/18 11:52:46;;;;;;;33.92;15.45;;;;;;;8.88;93.20;99694.63;2215463;80;21507;-67
2021/10/18 11:55:46;;;;;;;34.18;15.68;;;;;;;8.82;93.06;99691.80;2214972;80;21543;-67
2021/10/18 11:58:47;;;;;;;35.55;16.02;;;;;;;8.74;93.29;99686.88;2204835;80;21530;-67
2021/10/18 12:01:48;;;;;;;35.88;15.35;;;;;;;8.69;93.67;99703.20;2208553;80;20961;-67
2021/10/18 12:04:49;;;;;;;34.92;15.20;;;;;;;8.63;93.74;99700.83;2210559;80;21025;-67
2021/10/18 12:07:49;;;;;;;34.83;15.45;;;;;;;8.60;94.05;99704.88;2209710;80;20976;-67
2021/10/18 12:10:50;;;;;;;35.85;15.72;;;;;;;8.58;94.27;99708.86;2209954;80;21503;-68
2021/10/18 12:13:50;;;;;;;33.53;15.35;;;;;;;8.62;93.94;99697.38;2207643;80;20941;-67
2021/10/18 12:16:51;;;;;;;38.45;16.05;;;;;;;8.72;94.08;99698.31;2209852;80;21064;-67
2021/10/18 12:19:51;;;;;;;35.17;16.40;;;;;;;8.80;93.94;99693.16;2208640;80;20984;-67
2021/10/18 12:22:51;;;;;;;40.50;17.77;;;;;;;8.84;93.58;99693.45;2210849;80;21139;-67
2021/10/18 12:25:52;;;;;;;38.38;17.07;;;;;;;8.80;93.38;99698.40;2208678;80;20941;-67
2021/10/18 12:28:53;;;;;;;39.08;17.42;;;;;;;8.77;93.38;99693.77;2209764;80;21527;-67
2021/10/18 12:31:55;;;;;;;38.17;16.27;;;;;;;8.78;93.52;99698.09;2207535;80;20953;-68
2021/10/18 12:34:55;;;;;;;37.50;17.40;;;;;;;8.81;93.45;99704.50;2209977;80;20968;-67
2021/10/18 12:37:56;;;;;;;39.75;18.20;;;;;;;8.80;93.24;99700.17;2208718;80;21052;-67
2021/10/18 12:40:56;;;;;;;38.08;16.73;;;;;;;8.83;93.55;99706.59;2207891;80;21499;-67
2021/10/18 12:43:57;;;;;;;34.90;17.17;;;;;;;8.85;93.08;99700.86;2208510;80;20965;-68
2021/10/18 12:46:57;;;;;;;40.88;17.87;;;;;;;8.86;93.24;99703.84;2208916;80;21092;-67
2021/10/18 12:49:58;;;;;;;36.20;16.32;;;;;;;8.89;93.13;99697.64;2209287;80;21020;-67
2021/10/18 12:52:58;;;;;;;34.33;16.10;;;;;;;8.92;93.23;99704.05;2210460;80;21051;-68
2021/10/18 12:55:59;;;;;;;35.15;16.65;;;;;;;8.89;93.07;99702.41;2208993;80;20996;-67
2021/10/18 12:58:59;;;;;;;37.17;17.02;;;;;;;8.91;93.25;99694.53;2210591;80;20981;-67
2021/10/18 13:02:00;;;;;;;37.35;17.87;;;;;;;8.94;93.13;99691.78;2209726;80;20957;-68
2021/10/18 13:05:00;;;;;;;38.05;17.30;;;;;;;9.01;92.99;99706.32;2209664;80;21439;-67
2021/10/18 13:08:01;;;;;;;33.48;16.82;;;;;;;8.99;92.89;99694.61;2207035;80;20969;-68
2021/10/18 13:11:02;;;;;;;38.70;18.17;;;;;;;9.02;92.87;99697.53;2207994;80;20960;-67
2021/10/18 13:14:03;;;;;;;38.20;18.03;;;;;;;9.01;93.23;99710.25;2208809;80;20965;-67
2021/10/18 13:17:03;;;;;;;36.17;16.30;;;;;;;9.01;93.25;99712.86;2208511;80;21008;-67
2021/10/18 13:20:04;;;;;;;33.90;16.10;;;;;;;9.01;92.86;99708.47;2207981;80;21479;-67
2021/10/18 13:23:05;;;;;;;37.45;17.52;;;;;;;8.98;92.94;99702.05;2209513;80;21466;-67
2021/10/18 13:26:06;;;;;;;37.98;16.90;;;;;;;9.00;93.08;99709.38;2207135;80;21498;-67
2021/10/18 13:29:06;;;;;;;39.20;17.87;;;;;;;9.02;93.04;99709.31;2209095;80;20977;-68
2021/10/18 13:32:07;;;;;;;39.88;18.07;;;;;;;9.00;92.87;99708.06;2206417;80;20988;-67
2021/10/18 13:35:07;;;;;;;37.85;18.25;;;;;;;9.01;93.02;99708.94;2209692;80;21008;-67
2021/10/18 13:38:09;;;;;;;37.83;17.82;;;;;;;9.02;93.13;99710.62;2209825;80;21491;-67
2021/10/18 13:41:10;;;;;;;39.05;18.32;;;;;;;9.03;93.25;99714.95;2207526;80;20996;-67
2021/10/18 13:44:10;;;;;;;37.70;17.17;;;;;;;9.06;93.23;99713.51;2207607;80;20976;-67
2021/10/18 13:47:10;;;;;;;36.77;17.52;;;;;;;9.07;93.53;99714.38;2209533;80;20965;-67
2021/10/18 13:50:11;;;;;;;37.23;18.35;;;;;;;9.06;93.36;99718.74;2210150;81;21067;-67
2021/10/18 13:53:11;;;;;;;37.00;16.90;;;;;;;9.09;93.38;99721.23;2208495;80;20980;-67
2021/10/18 13:56:13;;;;;;;37.03;17.50;;;;;;;9.10;93.37;99728.65;2209884;80;21471;-67
2021/10/18 13:59:17;;;;;;;37.45;17.90;;;;;;;9.09;93.57;99725.16;2217323;80;21471;-67
2021/10/18 14:02:16;;;;;;;35.92;16.80;;;;;;;9.06;93.26;99720.52;2186659;80;20976;-67
2021/10/18 14:05:17;;;;;;;37.45;16.95;;;;;;;9.01;93.58;99724.17;2208889;80;20996;-67
2021/10/18 14:08:17;;;;;;;39.45;18.30;;;;;;;9.00;93.68;99721.62;2208554;80;20973;-67
2021/10/18 14:11:18;;;;;;;40.92;19.30;;;;;;;9.00;93.75;99725.08;2208829;80;20984;-67
2021/10/18 14:14:18;;;;;;;42.08;19.23;;;;;;;9.02;93.64;99719.78;2209505;80;20985;-67
2021/10/18 14:17:19;;;;;;;41.40;19.15;;;;;;;8.98;93.88;99722.99;2208936;80;21536;-67
2021/10/18 14:20:19;;;;;;;39.30;18.07;;;;;;;8.95;94.11;99728.78;2209369;80;21012;-67
2021/10/18 14:23:20;;;;;;;37.58;16.73;;;;;;;8.91;94.20;99734.61;2208674;80;20993;-67
2021/10/18 14:26:21;;;;;;;39.20;18.23;;;;;;;8.91;94.41;99734.61;2208717;80;20993;-67
2021/10/18 14:29:21;;;;;;;40.25;18.20;;;;;;;8.89;94.58;99739.03;2202504;80;21047;-67
2021/10/18 14:32:21;;;;;;;43.70;18.62;;;;;;;8.89;94.38;99730.34;2210612;80;21135;-67
2021/10/18 14:35:22;;;;;;;43.08;18.40;;;;;;;8.89;94.52;99735.58;2208549;80;21008;-67
2021/10/18 14:38:22;;;;;;;41.08;18.35;;;;;;;8.87;94.84;99735.64;2209491;80;21543;-67
2021/10/18 14:41:24;;;;;;;41.25;19.25;;;;;;;8.89;94.58;99739.50;2210622;80;21559;-67
2021/10/18 14:44:26;;;;;;;44.40;22.70;;;;;;;8.88;94.75;99741.28;2207042;80;21016;-67
2021/10/18 14:47:26;;;;;;;47.50;22.95;;;;;;;8.87;94.81;99735.64;2208954;81;20992;-67
2021/10/18 14:50:27;;;;;;;46.98;21.77;;;;;;;8.89;94.64;99740.34;2210324;80;21012;-67
2021/10/18 14:53:27;;;;;;;48.35;24.05;;;;;;;8.92;94.94;99740.69;2208661;80;21064;-67
2021/10/18 14:56:28;;;;;;;51.95;26.45;;;;;;;8.92;94.70;99743.30;2207817;80;21019;-67
2021/10/18 14:59:28;;;;;;;53.28;25.48;;;;;;;8.92;94.93;99746.80;2209519;80;21020;-67
2021/10/18 15:02:29;;;;;;;54.73;26.65;;;;;;;8.92;95.12;99742.87;2210437;80;20992;-67
2021/10/18 15:05:29;;;;;;;53.33;25.90;;;;;;;8.94;94.67;99745.42;2208475;80;21016;-67
2021/10/18 15:08:30;;;;;;;47.35;24.55;;;;;;;8.96;94.77;99749.66;2209860;80;21083;-67
2021/10/18 15:11:30;;;;;;;51.37;25.57;;;;;;;8.94;94.60;99743.64;2208335;80;20952;-67
2021/10/18 15:14:30;;;;;;;51.48;24.52;;;;;;;8.99;94.50;99756.54;2209808;80;20976;-67
2021/10/18 15:17:31;;;;;;;49.73;26.48;;;;;;;9.02;94.50;99753.80;2210398;80;20969;-67
2021/10/18 15:20:31;;;;;;;54.27;29.23;;;;;;;9.00;94.44;99753.02;2208720;80;21020;-67
2021/10/18 15:23:32;;;;;;;56.58;27.27;;;;;;;9.01;94.47;99754.27;2209480;80;20960;-67
2021/10/18 15:26:33;;;;;;;49.98;24.77;;;;;;;9.00;94.59;99753.02;2207475;80;21519;-67
2021/10/18 15:29:33;;;;;;;52.58;25.95;;;;;;;9.01;94.41;99747.72;2208679;80;21072;-67
2021/10/18 15:32:34;;;;;;;44.60;23.62;;;;;;;9.00;94.21;99739.94;2208356;80;21055;-67
2021/10/18 15:35:35;;;;;;;46.58;23.47;;;;;;;8.97;94.35;99753.98;2209073;80;20988;-67
2021/10/18 15:38:35;;;;;;;49.35;23.75;;;;;;;8.94;94.43;99754.58;2207603;80;21016;-67
2021/10/18 15:41:36;;;;;;;50.45;24.52;;;;;;;8.96;94.22;99760.13;2208687;80;21532;-67
2021/10/18 15:44:36;;;;;;;47.95;23.98;;;;;;;8.99;94.06;99752.18;2209425;80;20988;-67
2021/10/18 15:47:37;;;;;;;46.23;23.32;;;;;;;9.00;93.81;99754.33;2209311;80;21036;-67
2021/10/18 15:50:37;;;;;;;49.85;24.35;;;;;;;9.01;93.74;99755.57;2207838;80;20976;-67
2021/10/18 15:53:38;;;;;;;50.73;25.72;;;;;;;8.98;93.66;99750.47;2208404;80;21467;-67
2021/10/18 15:56:38;;;;;;;49.27;25.70;;;;;;;8.99;93.67;99752.18;2210944;80;21560;-67
2021/10/18 15:59:39;;;;;;;55.28;27.35;;;;;;;9.05;93.57;99749.78;2209679;80;20984;-67
2021/10/18 16:02:39;;;;;;;54.40;28.55;;;;;;;9.07;93.42;99749.25;2209318;80;21017;-67
2021/10/18 16:05:41;;;;;;;54.67;28.47;;;;;;;9.13;93.24;99749.45;2209686;80;21440;-67
2021/10/18 16:08:42;;;;;;;64.75;33.95;;;;;;;9.14;93.08;99744.63;2209272;81;21012;-67
2021/10/18 16:11:42;;;;;;;55.38;28.70;;;;;;;9.10;93.01;99753.05;2209056;80;21000;-67
2021/10/18 16:14:43;;;;;;;51.88;27.52;;;;;;;9.08;92.91;99760.55;2208627;80;20953;-67
2021/10/18 16:17:44;;;;;;;53.87;27.13;;;;;;;9.03;93.19;99759.44;2207749;80;21023;-67
2021/10/18 16:20:46;;;;;;;55.35;28.60;;;;;;;9.00;93.28;99760.87;2206532;80;21024;-67
2021/10/18 16:23:47;;;;;;;61.95;30.35;;;;;;;8.96;93.33;99767.13;2206085;80;20996;-66
2021/10/18 16:26:48;;;;;;;58.70;31.02;;;;;;;8.92;93.43;99767.73;2208878;80;21012;-67
2021/10/18 16:29:48;;;;;;;57.58;29.67;;;;;;;8.94;93.40;99772.42;2207586;80;20989;-67
2021/10/18 16:32:49;;;;;;;61.95;32.30;;;;;;;8.98;93.35;99779.72;2207346;80;21558;-67
2021/10/18 16:35:51;;;;;;;66.97;32.28;;;;;;;8.98;93.32;99785.79;2208109;80;21024;-67
2021/10/18 16:38:52;;;;;;;54.83;28.10;;;;;;;8.98;93.32;99791.02;2212939;80;20981;-67
2021/10/18 16:41:52;;;;;;;62.05;32.67;;;;;;;8.95;93.53;99792.45;2209915;80;21016;-67
2021/10/18 16:44:53;;;;;;;65.45;36.20;;;;;;;8.90;93.38;99785.23;2208249;80;21534;-67
2021/10/18 16:47:53;;;;;;;62.98;34.58;;;;;;;8.92;93.39;99789.09;2209046;80;21032;-67
2021/10/18 16:50:53;;;;;;;60.78;32.50;;;;;;;8.96;93.42;99792.83;2208942;80;21008;-67
2021/10/18 16:53:54;;;;;;;59.38;32.33;;;;;;;8.99;93.31;99800.59;2208940;80;20997;-67
2021/10/18 16:56:54;;;;;;;69.25;36.68;;;;;;;8.99;93.21;99793.17;2210339;80;21044;-67
2021/10/18 16:59:55;;;;;;;66.20;35.17;;;;;;;9.03;93.34;99785.61;2210718;80;21565;-67
2021/10/18 17:02:56;;;;;;;118.00;59.85;;;;;;;9.12;93.24;99773.91;2207456;80;21543;-67
2021/10/18 17:05:56;;;;;;;78.17;43.02;;;;;;;9.15;93.01;99755.03;2209554;80;21082;-67
2021/10/18 17:08:56;;;;;;;65.08;36.23;;;;;;;9.21;92.87;99743.46;2210878;80;21008;-67
2021/10/18 17:11:57;;;;;;;62.30;32.95;;;;;;;9.26;92.68;99736.25;2210339;80;21004;-67
2021/10/18 17:14:58;;;;;;;91.82;50.23;;;;;;;9.28;92.40;99751.45;2208566;80;21004;-67
2021/10/18 17:17:58;;;;;;;83.58;48.25;;;;;;;9.29;92.28;99757.53;2209827;80;20976;-67
2021/10/18 17:20:59;;;;;;;59.70;32.40;;;;;;;9.28;92.15;99763.23;2210097;80;21055;-67
2021/10/18 17:23:59;;;;;;;63.85;34.38;;;;;;;9.24;92.10;99758.17;2208298;80;20996;-67
2021/10/18 17:27:00;;;;;;;62.95;32.00;;;;;;;9.19;92.12;99763.16;2207453;80;21016;-67
2021/10/18 17:30:00;;;;;;;65.67;33.55;;;;;;;9.14;92.26;99761.17;2208201;80;21016;-67
2021/10/18 17:33:01;;;;;;;71.45;36.65;;;;;;;9.09;92.32;99765.72;2209587;80;20937;-67
2021/10/18 17:36:01;;;;;;;70.12;35.60;;;;;;;9.07;92.54;99771.95;2209918;80;21460;-67
2021/10/18 17:39:02;;;;;;;68.22;36.38;;;;;;;9.00;92.85;99770.88;2209849;80;21519;-67
2021/10/18 17:42:02;;;;;;;67.22;34.35;;;;;;;8.97;92.94;99765.77;2209010;80;20980;-67
2021/10/18 17:45:03;;;;;;;56.45;30.72;;;;;;;8.96;92.87;99764.52;2209435;81;21032;-67
2021/10/18 17:48:03;;;;;;;67.03;32.10;;;;;;;8.93;93.14;99772.02;2208672;80;21107;-67
2021/10/18 17:51:06;;;;;;;67.75;33.35;;;;;;;8.88;93.41;99767.88;2209630;80;21515;-67
2021/10/18 17:54:06;;;;;;;54.25;28.50;;;;;;;8.84;93.38;99778.94;2208366;80;20997;-67
2021/10/18 17:57:07;;;;;;;55.50;27.07;;;;;;;8.83;93.51;99770.68;2207345;80;20960;-67
2021/10/18 18:00:07;;;;;;;48.08;25.25;;;;;;;8.81;93.69;99767.28;2207640;80;21440;-68
2021/10/18 18:03:09;;;;;;;55.33;26.05;;;;;;;8.77;93.70;99772.23;2208831;80;21448;-67
2021/10/18 18:06:10;;;;;;;52.83;25.70;;;;;;;8.77;93.80;99772.23;2209787;80;20985;-67
2021/10/18 18:09:10;;;;;;;53.15;25.68;;;;;;;8.73;93.88;99770.64;2209086;80;21044;-67
2021/10/18 18:12:12;;;;;;;51.92;25.17;;;;;;;8.70;93.95;99774.69;2208874;80;20976;-67
2021/10/18 18:15:13;;;;;;;53.02;25.50;;;;;;;8.66;93.96;99776.55;2209521;80;20997;-67
2021/10/18 18:18:13;;;;;;;47.05;24.02;;;;;;;8.65;93.81;99783.56;2208658;80;21033;-67
2021/10/18 18:21:13;;;;;;;51.20;25.05;;;;;;;8.65;93.86;99782.72;2208788;80;21008;-67
2021/10/18 18:24:14;;;;;;;53.23;27.13;;;;;;;8.62;93.79;99794.14;2208566;80;21000;-68
2021/10/18 18:27:14;;;;;;;54.95;27.77;;;;;;;8.61;93.85;99794.20;2210587;80;21535;-67
2021/10/18 18:30:15;;;;;;;54.20;26.70;;;;;;;8.59;93.74;99798.19;2209812;80;21558;-67
2021/10/18 18:33:15;;;;;;;53.38;27.70;;;;;;;8.63;93.63;99792.37;2209213;80;21008;-67
2021/10/18 18:36:16;;;;;;;51.23;26.73;;;;;;;8.64;93.47;99797.53;2208065;80;20933;-68
2021/10/18 18:39:16;;;;;;;51.77;25.45;;;;;;;8.64;93.32;99798.84;2209249;80;21035;-68
2021/10/18 18:42:17;;;;;;;50.83;24.75;;;;;;;8.64;93.23;99801.46;2208127;80;20988;-67
2021/10/18 18:45:17;;;;;;;50.95;25.05;;;;;;;8.63;93.15;99797.16;2210188;80;21004;-68
2021/10/18 18:48:18;;;;;;;48.95;24.23;;;;;;;8.61;93.00;99798.97;2209049;80;21007;-67
2021/10/18 18:51:18;;;;;;;54.93;24.55;;;;;;;8.61;92.90;99796.81;2207787;80;20992;-67
2021/10/18 18:54:18;;;;;;;46.10;21.37;;;;;;;8.62;92.93;99809.83;2208520;80;20985;-67
2021/10/18 18:57:19;;;;;;;50.25;24.00;;;;;;;8.60;92.76;99807.71;2209801;80;21519;-67
2021/10/18 19:00:19;;;;;;;49.60;24.15;;;;;;;8.57;92.70;99799.98;2209308;80;21523;-67
2021/10/18 19:03:20;;;;;;;49.53;26.10;;;;;;;8.59;92.72;99811.26;2208774;80;21024;-67
2021/10/18 19:06:21;;;;;;;53.48;24.15;;;;;;;8.60;92.64;99812.94;2206377;80;21032;-68
2021/10/18 19:09:22;;;;;;;48.15;23.20;;;;;;;8.58;92.66;99817.86;2208608;80;21118;-67
2021/10/18 19:12:23;;;;;;;47.30;22.15;;;;;;;8.55;92.62;99816.63;2208077;80;21554;-67
2021/10/18 19:15:24;;;;;;;47.03;22.93;;;;;;;8.54;92.60;99811.03;2210101;80;21004;-67
2021/10/18 19:18:24;;;;;;;47.83;23.77;;;;;;;8.55;92.56;99814.89;2208557;80;21023;-67
2021/10/18 19:21:25;;;;;;;47.78;23.70;;;;;;;8.58;92.49;99819.16;2208747;80;21071;-67
2021/10/18 19:24:25;;;;;;;50.12;24.87;;;;;;;8.58;92.44;99825.23;2209038;80;21008;-67
2021/10/18 19:27:26;;;;;;;49.90;24.32;;;;;;;8.58;92.50;99814.77;2209924;80;20992;-67
2021/10/18 19:30:29;;;;;;;50.48;24.20;;;;;;;8.62;92.37;99822.03;2210142;80;20953;-68
2021/10/18 19:33:28;;;;;;;58.30;29.12;;;;;;;8.65;92.29;99821.48;2210335;80;21077;-67
2021/10/18 19:36:29;;;;;;;55.67;28.87;;;;;;;8.69;92.20;99819.59;2209312;80;21004;-67
2021/10/18 19:39:29;;;;;;;47.65;24.05;;;;;;;8.72;92.00;99818.19;2211610;80;22813;-67
2021/10/18 19:42:30;;;;;;;47.53;23.12;;;;;;;8.73;91.92;99813.80;2208921;80;21507;-68
2021/10/18 19:45:30;;;;;;;46.18;21.27;;;;;;;8.77;91.80;99819.32;2208754;80;20996;-67
2021/10/18 19:48:31;;;;;;;44.38;20.82;;;;;;;8.80;91.76;99812.66;2208424;80;21012;-68
2021/10/18 19:51:31;;;;;;;44.88;21.95;;;;;;;8.80;91.41;99813.50;2207715;80;21045;-67
2021/10/18 19:54:32;;;;;;;42.93;20.43;;;;;;;8.75;91.43;99811.53;2210041;80;21020;-67
2021/10/18 19:57:32;;;;;;;43.75;20.00;;;;;;;8.75;91.35;99817.20;2206825;80;21016;-67
2021/10/18 20:00:33;;;;;;;39.60;19.42;;;;;;;8.72;91.28;99818.19;2208744;80;20997;-67
2021/10/18 20:03:33;;;;;;;42.15;19.67;;;;;;;8.67;91.27;99820.11;2208241;80;21020;-67
2021/10/18 20:06:33;;;;;;;39.40;19.17;;;;;;;8.63;91.37;99821.14;2210666;80;21027;-67
2021/10/18 20:09:34;;;;;;;37.70;18.07;;;;;;;8.59;91.44;99823.03;2208078;80;21491;-67
2021/10/18 20:12:34;;;;;;;37.67;17.30;;;;;;;8.56;91.47;99822.27;2210567;80;21483;-67
2021/10/18 20:15:35;;;;;;;36.90;17.27;;;;;;;8.52;91.61;99824.59;2210342;80;20992;-67
2021/10/18 20:18:36;;;;;;;39.38;18.12;;;;;;;8.51;91.66;99828.98;2210707;80;21024;-67
2021/10/18 20:21:36;;;;;;;37.80;17.82;;;;;;;8.49;91.78;99829.48;2211279;80;21029;-67
2021/10/18 20:24:36;;;;;;;35.83;16.60;;;;;;;8.52;91.80;99829.83;2208924;80;21004;-67
2021/10/18 20:27:37;;;;;;;36.58;16.97;;;;;;;8.55;91.78;99833.63;2209052;80;20988;-67
2021/10/18 20:30:37;;;;;;;37.78;17.90;;;;;;;8.54;91.67;99828.02;2210730;80;21011;-67
2021/10/18 20:33:38;;;;;;;43.08;18.70;;;;;;;8.51;91.63;99825.06;2210420;81;21003;-67
2021/10/18 20:36:38;;;;;;;39.05;17.32;;;;;;;8.49;91.70;99827.73;2210082;80;21466;-67
2021/10/18 20:39:39;;;;;;;38.55;18.07;;;;;;;8.45;91.74;99827.45;2208772;80;21506;-67
2021/10/18 20:42:39;;;;;;;43.13;18.40;;;;;;;8.42;91.73;99822.73;2209942;80;21110;-67
2021/10/18 20:45:42;;;;;;;41.83;18.23;;;;;;;8.41;91.83;99823.20;2210601;80;21502;-67
2021/10/18 20:48:43;;;;;;;37.65;17.52;;;;;;;8.40;91.91;99828.48;2211052;80;21018;-67
2021/10/18 20:51:43;;;;;;;39.75;18.50;;;;;;;8.39;91.93;99826.77;2209574;80;21052;-67
2021/10/18 20:54:44;;;;;;;40.58;18.05;;;;;;;8.38;91.90;99829.84;2208241;80;21028;-67
2021/10/18 20:57:44;;;;;;;41.80;17.30;;;;;;;8.38;91.89;99828.55;2209706;80;20941;-67
2021/10/18 21:00:44;;;;;;;36.35;16.77;;;;;;;8.38;91.87;99827.70;2208616;80;20998;-67
2021/10/18 21:03:45;;;;;;;38.25;17.90;;;;;;;8.40;91.80;99834.55;2208710;80;21048;-67
2021/10/18 21:06:45;;;;;;;37.90;17.62;;;;;;;8.40;91.72;99830.63;2208033;80;21016;-67
2021/10/18 21:09:46;;;;;;;39.38;17.52;;;;;;;8.38;91.66;99836.38;2208547;80;21804;-67
2021/10/18 21:12:47;;;;;;;38.90;17.87;;;;;;;8.35;91.66;99842.16;2209734;80;21059;-67
2021/10/18 21:15:47;;;;;;;41.88;18.67;;;;;;;8.34;91.66;99837.40;2207884;80;21080;-67
2021/10/18 21:18:48;;;;;;;38.58;18.23;;;;;;;8.36;91.62;99842.56;2210629;80;21004;-67
2021/10/18 21:21:48;;;;;;;39.42;17.75;;;;;;;8.37;91.62;99840.36;2210705;80;20956;-67
2021/10/18 21:24:49;;;;;;;41.08;18.60;;;;;;;8.39;91.50;99839.84;2209725;80;21011;-67
2021/10/18 21:27:50;;;;;;;45.48;19.60;;;;;;;8.40;91.46;99850.23;2208559;80;21012;-67
2021/10/18 21:30:51;;;;;;;43.40;20.50;;;;;;;8.40;91.44;99845.48;2208941;80;20996;-67
2021/10/18 21:33:51;;;;;;;42.08;19.35;;;;;;;8.42;91.34;99847.57;2208467;80;21095;-68
2021/10/18 21:36:52;;;;;;;39.05;18.70;;;;;;;8.40;91.17;99848.09;2209181;80;20953;-67
2021/10/18 21:39:52;;;;;;;40.23;18.82;;;;;;;8.39;91.18;99851.61;2209068;80;21008;-67
2021/10/18 21:42:52;;;;;;;45.30;19.45;;;;;;;8.36;91.10;99849.10;2208479;80;20977;-67
2021/10/18 21:45:53;;;;;;;38.17;18.32;;;;;;;8.32;91.06;99850.98;2208056;80;21000;-67
2021/10/18 21:48:54;;;;;;;41.00;18.40;;;;;;;8.31;91.11;99859.73;2208093;80;21019;-67
2021/10/18 21:51:54;;;;;;;39.03;17.98;;;;;;;8.30;91.04;99853.66;2208559;80;21471;-67
2021/10/18 21:54:55;;;;;;;41.98;18.50;;;;;;;8.32;91.01;99848.37;2210544;80;21801;-67
2021/10/18 21:57:55;;;;;;;38.92;18.57;;;;;;;8.35;90.95;99844.77;2209659;80;20989;-67
2021/10/18 22:00:56;;;;;;;43.48;20.17;;;;;;;8.36;90.88;99845.19;2208909;80;20976;-68
2021/10/18 22:03:57;;;;;;;43.05;20.25;;;;;;;8.32;90.65;99842.69;2207193;80;21023;-67
2021/10/18 22:06:57;;;;;;;41.33;19.80;;;;;;;8.29;90.75;99851.10;2209606;80;20988;-67
2021/10/18 22:09:57;;;;;;;42.62;18.67;;;;;;;8.27;90.77;99848.98;2207902;80;21032;-67
2021/10/18 22:12:58;;;;;;;41.83;19.02;;;;;;;8.26;90.80;99843.34;2208435;80;20992;-67
2021/10/18 22:15:59;;;;;;;39.75;18.70;;;;;;;8.27;90.80;99840.67;2210555;80;21807;-67
2021/10/18 22:19:00;;;;;;;42.83;19.92;;;;;;;8.30;90.76;99843.20;2209580;80;21000;-67
2021/10/18 22:22:02;;;;;;;44.40;21.20;;;;;;;8.32;90.67;99837.45;2208968;80;21067;-67
2021/10/18 22:25:03;;;;;;;52.43;23.90;;;;;;;8.37;90.46;99841.20;2215608;80;21052;-67